THY1813 LTFM-LFMN
Flight info
| Callsign | THY1813 |
|---|---|
| Flight time | 2h 31m |
| Altitude | 36000 |
| Route | VADEN1D/35L VADEN N618 GOL Y520 LUKOV Q8 DOLAP DCT VELUG/N0449F370 DCT ELB/N0447F360 DCT TOBGA/N0437F300 DCT DOBIM DCT AKUTI R16 KERIT |
| Aircraft | A321/M-SDE3FGHIRWY/LB1 |
Departure
| Time | 2026-05-04 14:00 |
|---|---|
| Airport | İstanbul Airport (LTFM) |
Arrival
| Time | 2026-05-04 16:32 |
|---|---|
| Airport | Nice-Côte d'Azur Airport (LFMN) |
| Time | Latitude | Longitude | Altitude | Speed | Heading |
|---|---|---|---|---|---|
| 2026-05-04 13:43 | 41.26643 | 28.73443 | 314 ft | 0 kts | 72° |
| 2026-05-04 13:50 | 41.26642 | 28.73440 | 313 ft | 3 kts | 72° |
| 2026-05-04 13:51 | 41.26636 | 28.73416 | 312 ft | 3 kts | 74° |
| 2026-05-04 13:51 | 41.26634 | 28.73390 | 312 ft | 3 kts | 105° |
| 2026-05-04 13:51 | 41.26642 | 28.73367 | 312 ft | 3 kts | 122° |
| 2026-05-04 13:51 | 41.26654 | 28.73347 | 312 ft | 3 kts | 153° |
| 2026-05-04 13:52 | 41.26664 | 28.73342 | 311 ft | 0 kts | 165° |
| 2026-05-04 13:55 | 41.26648 | 28.73341 | 313 ft | 3 kts | 181° |
| 2026-05-04 13:55 | 41.26621 | 28.73330 | 313 ft | 5 kts | 208° |
| 2026-05-04 13:56 | 41.26600 | 28.73287 | 313 ft | 6 kts | 255° |
| 2026-05-04 13:56 | 41.26596 | 28.73237 | 313 ft | 2 kts | 265° |
| 2026-05-04 13:56 | 41.26597 | 28.73081 | 312 ft | 12 kts | 269° |
| 2026-05-04 13:57 | 41.26596 | 28.72989 | 314 ft | 6 kts | 269° |
| 2026-05-04 13:57 | 41.26596 | 28.72968 | 314 ft | 0 kts | 269° |
| 2026-05-04 13:58 | 41.26595 | 28.72963 | 315 ft | 4 kts | 269° |
| 2026-05-04 13:59 | 41.26593 | 28.72827 | 323 ft | 21 kts | 268° |
| 2026-05-04 13:59 | 41.26592 | 28.72654 | 323 ft | 13 kts | 270° |
| 2026-05-04 13:59 | 41.26676 | 28.72509 | 323 ft | 13 kts | 359° |
| 2026-05-04 14:00 | 41.26914 | 28.72511 | 323 ft | 74 kts | 359° |
| 2026-05-04 14:00 | 41.28854 | 28.72464 | 858 ft | 174 kts | 359° |
| 2026-05-04 14:00 | 41.30090 | 28.72443 | 1889 ft | 179 kts | 0° |
| 2026-05-04 14:01 | 41.31372 | 28.72438 | 2839 ft | 193 kts | 1° |
| 2026-05-04 14:01 | 41.32798 | 28.72455 | 3458 ft | 215 kts | 1° |
| 2026-05-04 14:01 | 41.36024 | 28.72506 | 4590 ft | 239 kts | 0° |
| 2026-05-04 14:02 | 41.37686 | 28.72324 | 5377 ft | 243 kts | 341° |
| 2026-05-04 14:02 | 41.39033 | 28.71009 | 6138 ft | 251 kts | 312° |
| 2026-05-04 14:02 | 41.40037 | 28.69102 | 6970 ft | 253 kts | 306° |
| 2026-05-04 14:02 | 41.40939 | 28.67061 | 7736 ft | 257 kts | 305° |
| 2026-05-04 14:03 | 41.41815 | 28.64971 | 8527 ft | 260 kts | 305° |
| 2026-05-04 14:03 | 41.42702 | 28.62858 | 9290 ft | 262 kts | 306° |
| 2026-05-04 14:03 | 41.43609 | 28.60741 | 10059 ft | 264 kts | 307° |
| 2026-05-04 14:03 | 41.44571 | 28.58561 | 10388 ft | 283 kts | 307° |
| 2026-05-04 14:04 | 41.46781 | 28.53720 | 10660 ft | 328 kts | 307° |
| 2026-05-04 14:04 | 41.48025 | 28.51061 | 10821 ft | 347 kts | 307° |
| 2026-05-04 14:04 | 41.49316 | 28.48291 | 11287 ft | 356 kts | 307° |
| 2026-05-04 14:05 | 41.51968 | 28.42557 | 12313 ft | 370 kts | 307° |
| 2026-05-04 14:05 | 41.53327 | 28.39601 | 12884 ft | 376 kts | 307° |
| 2026-05-04 14:05 | 41.54702 | 28.36605 | 13451 ft | 382 kts | 307° |
| 2026-05-04 14:06 | 41.56096 | 28.33565 | 14032 ft | 387 kts | 308° |
| 2026-05-04 14:06 | 41.57510 | 28.30478 | 14564 ft | 391 kts | 307° |
| 2026-05-04 14:06 | 41.58937 | 28.27362 | 15107 ft | 396 kts | 307° |
| 2026-05-04 14:06 | 41.60359 | 28.24254 | 15664 ft | 400 kts | 307° |
| 2026-05-04 14:07 | 41.61816 | 28.21065 | 16197 ft | 404 kts | 307° |
| 2026-05-04 14:07 | 41.63288 | 28.17845 | 16762 ft | 408 kts | 307° |
| 2026-05-04 14:07 | 41.64772 | 28.14594 | 17299 ft | 412 kts | 307° |
| 2026-05-04 14:07 | 41.66271 | 28.11305 | 17835 ft | 416 kts | 307° |
| 2026-05-04 14:08 | 41.67786 | 28.07985 | 18335 ft | 420 kts | 306° |
| 2026-05-04 14:08 | 41.69312 | 28.04632 | 18779 ft | 424 kts | 306° |
| 2026-05-04 14:08 | 41.70849 | 28.01245 | 19220 ft | 427 kts | 306° |
| 2026-05-04 14:08 | 41.72400 | 27.97826 | 19676 ft | 430 kts | 306° |
| 2026-05-04 14:09 | 41.75526 | 27.90934 | 20556 ft | 436 kts | 306° |
| 2026-05-04 14:09 | 41.77107 | 27.87449 | 20979 ft | 440 kts | 306° |
| 2026-05-04 14:10 | 41.80301 | 27.80389 | 21797 ft | 446 kts | 306° |
| 2026-05-04 14:10 | 41.81911 | 27.76824 | 22209 ft | 449 kts | 306° |
| 2026-05-04 14:10 | 41.83531 | 27.73228 | 22597 ft | 452 kts | 306° |
| 2026-05-04 14:10 | 41.85157 | 27.69607 | 23019 ft | 455 kts | 306° |
| 2026-05-04 14:11 | 41.86796 | 27.65954 | 23430 ft | 458 kts | 306° |
| 2026-05-04 14:11 | 41.90102 | 27.58592 | 23972 ft | 462 kts | 306° |
| 2026-05-04 14:11 | 41.91756 | 27.54898 | 24021 ft | 462 kts | 306° |
| 2026-05-04 14:12 | 41.93410 | 27.51194 | 24024 ft | 462 kts | 306° |
| 2026-05-04 14:12 | 41.95061 | 27.47490 | 24026 ft | 462 kts | 306° |
| 2026-05-04 14:12 | 41.98378 | 27.40055 | 24648 ft | 466 kts | 305° |
| 2026-05-04 14:13 | 42.00051 | 27.36301 | 24986 ft | 468 kts | 305° |
| 2026-05-04 14:13 | 42.01723 | 27.32538 | 25315 ft | 470 kts | 305° |
| 2026-05-04 14:13 | 42.03378 | 27.28805 | 25648 ft | 472 kts | 305° |
| 2026-05-04 14:13 | 42.05060 | 27.25004 | 25968 ft | 475 kts | 305° |
| 2026-05-04 14:14 | 42.06874 | 27.21281 | 26282 ft | 473 kts | 311° |
| 2026-05-04 14:14 | 42.11212 | 27.14632 | 26915 ft | 474 kts | 316° |
| 2026-05-04 14:14 | 42.13415 | 27.11333 | 27354 ft | 473 kts | 316° |
| 2026-05-04 14:15 | 42.17804 | 27.04731 | 28211 ft | 472 kts | 316° |
| 2026-05-04 14:15 | 42.22168 | 26.98148 | 29065 ft | 471 kts | 315° |
| 2026-05-04 14:16 | 42.26530 | 26.91547 | 29897 ft | 470 kts | 315° |
| 2026-05-04 14:16 | 42.28703 | 26.88249 | 30287 ft | 470 kts | 315° |
| 2026-05-04 14:17 | 42.33040 | 26.81664 | 31013 ft | 468 kts | 315° |
| 2026-05-04 14:17 | 42.35210 | 26.78370 | 31379 ft | 467 kts | 315° |
| 2026-05-04 14:17 | 42.39526 | 26.71802 | 32092 ft | 466 kts | 314° |
| 2026-05-04 14:18 | 42.41644 | 26.68575 | 32443 ft | 465 kts | 314° |
| 2026-05-04 14:18 | 42.45943 | 26.62020 | 33117 ft | 465 kts | 314° |
| 2026-05-04 14:19 | 42.50223 | 26.55463 | 33785 ft | 464 kts | 314° |
| 2026-05-04 14:19 | 42.52325 | 26.52154 | 34089 ft | 465 kts | 310° |
| 2026-05-04 14:19 | 42.54119 | 26.48486 | 34360 ft | 468 kts | 300° |
| 2026-05-04 14:19 | 42.55487 | 26.44487 | 34640 ft | 469 kts | 291° |
| 2026-05-04 14:20 | 42.56556 | 26.40310 | 34931 ft | 468 kts | 290° |
| 2026-05-04 14:20 | 42.57615 | 26.36136 | 35240 ft | 467 kts | 290° |
| 2026-05-04 14:20 | 42.58673 | 26.31969 | 35553 ft | 466 kts | 290° |
| 2026-05-04 14:21 | 42.60775 | 26.23664 | 35997 ft | 465 kts | 290° |
| 2026-05-04 14:21 | 42.61822 | 26.19507 | 36027 ft | 465 kts | 290° |
| 2026-05-04 14:21 | 42.63911 | 26.11201 | 36029 ft | 465 kts | 290° |
| 2026-05-04 14:22 | 42.65981 | 26.02936 | 36029 ft | 465 kts | 290° |
| 2026-05-04 14:22 | 42.68060 | 25.94608 | 36037 ft | 466 kts | 290° |
| 2026-05-04 14:23 | 42.71174 | 25.82092 | 36050 ft | 466 kts | 290° |
| 2026-05-04 14:24 | 42.72895 | 25.75149 | 36053 ft | 466 kts | 290° |
| 2026-05-04 14:24 | 42.74955 | 25.66780 | 36069 ft | 467 kts | 290° |
| 2026-05-04 14:25 | 42.77009 | 25.58400 | 36074 ft | 467 kts | 290° |
| 2026-05-04 14:25 | 42.80101 | 25.45811 | 36080 ft | 467 kts | 290° |
| 2026-05-04 14:26 | 42.82153 | 25.37409 | 36089 ft | 467 kts | 289° |
| 2026-05-04 14:26 | 42.84191 | 25.29009 | 36094 ft | 467 kts | 289° |
| 2026-05-04 14:27 | 42.86223 | 25.20604 | 36094 ft | 467 kts | 289° |
| 2026-05-04 14:27 | 42.88242 | 25.12230 | 36090 ft | 469 kts | 289° |
| 2026-05-04 14:28 | 42.90275 | 25.03783 | 36096 ft | 469 kts | 289° |
| 2026-05-04 14:28 | 42.92300 | 24.95308 | 36104 ft | 470 kts | 289° |
| 2026-05-04 14:29 | 42.96335 | 24.78342 | 36124 ft | 470 kts | 289° |
| 2026-05-04 14:30 | 42.98343 | 24.69854 | 36129 ft | 469 kts | 289° |
| 2026-05-04 14:31 | 43.01330 | 24.57138 | 36133 ft | 468 kts | 288° |
| 2026-05-04 14:32 | 43.05282 | 24.40269 | 36134 ft | 467 kts | 288° |
| 2026-05-04 14:32 | 43.07241 | 24.31810 | 36133 ft | 466 kts | 288° |
| 2026-05-04 14:33 | 43.09260 | 24.23393 | 36127 ft | 465 kts | 293° |
| 2026-05-04 14:33 | 43.12425 | 24.15724 | 36130 ft | 463 kts | 303° |
| 2026-05-04 14:34 | 43.15858 | 24.08272 | 36125 ft | 462 kts | 303° |
| 2026-05-04 14:34 | 43.19263 | 24.00815 | 36124 ft | 462 kts | 303° |
| 2026-05-04 14:35 | 43.22668 | 23.93357 | 36123 ft | 461 kts | 303° |
| 2026-05-04 14:35 | 43.26062 | 23.85909 | 36120 ft | 460 kts | 302° |
| 2026-05-04 14:36 | 43.28583 | 23.77851 | 36120 ft | 462 kts | 284° |
| 2026-05-04 14:36 | 43.29507 | 23.69131 | 36118 ft | 462 kts | 278° |
| 2026-05-04 14:37 | 43.30288 | 23.60378 | 36116 ft | 462 kts | 278° |
| 2026-05-04 14:37 | 43.31069 | 23.51622 | 36114 ft | 462 kts | 278° |
| 2026-05-04 14:38 | 43.31830 | 23.42909 | 36112 ft | 462 kts | 278° |
| 2026-05-04 14:38 | 43.32584 | 23.34128 | 36110 ft | 463 kts | 278° |
| 2026-05-04 14:39 | 43.33338 | 23.25350 | 36111 ft | 463 kts | 278° |
| 2026-05-04 14:39 | 43.34093 | 23.16567 | 36108 ft | 463 kts | 278° |
| 2026-05-04 14:40 | 43.35223 | 23.03363 | 36108 ft | 464 kts | 278° |
| 2026-05-04 14:40 | 43.35960 | 22.94543 | 36110 ft | 465 kts | 278° |
| 2026-05-04 14:41 | 43.36687 | 22.85719 | 36112 ft | 465 kts | 278° |
| 2026-05-04 14:42 | 43.37138 | 22.68030 | 36114 ft | 466 kts | 269° |
| 2026-05-04 14:42 | 43.36845 | 22.59115 | 36115 ft | 467 kts | 269° |
| 2026-05-04 14:43 | 43.36554 | 22.50212 | 36113 ft | 467 kts | 269° |
| 2026-05-04 14:43 | 43.36248 | 22.41303 | 36117 ft | 466 kts | 269° |
| 2026-05-04 14:44 | 43.35936 | 22.32398 | 36121 ft | 466 kts | 270° |
| 2026-05-04 14:44 | 43.35617 | 22.23496 | 36115 ft | 466 kts | 270° |
| 2026-05-04 14:45 | 43.35293 | 22.14599 | 36122 ft | 466 kts | 270° |
| 2026-05-04 14:45 | 43.34968 | 22.05715 | 36123 ft | 466 kts | 270° |
| 2026-05-04 14:46 | 43.34633 | 21.96829 | 36129 ft | 466 kts | 270° |
| 2026-05-04 14:46 | 43.34294 | 21.88003 | 36130 ft | 466 kts | 270° |
| 2026-05-04 14:47 | 43.33942 | 21.79123 | 36130 ft | 465 kts | 270° |
| 2026-05-04 14:47 | 43.33580 | 21.70250 | 36129 ft | 465 kts | 270° |
| 2026-05-04 14:48 | 43.33211 | 21.61375 | 36129 ft | 465 kts | 270° |
| 2026-05-04 14:48 | 43.32838 | 21.52509 | 36129 ft | 465 kts | 270° |
| 2026-05-04 14:49 | 43.32467 | 21.43658 | 36134 ft | 464 kts | 270° |
| 2026-05-04 14:49 | 43.32087 | 21.34814 | 36134 ft | 464 kts | 270° |
| 2026-05-04 14:50 | 43.31696 | 21.25980 | 36139 ft | 463 kts | 270° |
| 2026-05-04 14:50 | 43.31297 | 21.17217 | 36138 ft | 463 kts | 270° |
| 2026-05-04 14:51 | 43.30893 | 21.08406 | 36144 ft | 462 kts | 270° |
| 2026-05-04 14:51 | 43.30488 | 20.99607 | 36143 ft | 461 kts | 270° |
| 2026-05-04 14:52 | 43.30073 | 20.90830 | 36145 ft | 461 kts | 270° |
| 2026-05-04 14:52 | 43.29645 | 20.82058 | 36145 ft | 460 kts | 270° |
| 2026-05-04 14:53 | 43.29215 | 20.73298 | 36143 ft | 459 kts | 270° |
| 2026-05-04 14:53 | 43.28786 | 20.64549 | 36142 ft | 459 kts | 270° |
| 2026-05-04 14:54 | 43.28348 | 20.55810 | 36136 ft | 459 kts | 270° |
| 2026-05-04 14:54 | 43.27905 | 20.47133 | 36133 ft | 459 kts | 270° |
| 2026-05-04 14:55 | 43.27450 | 20.38403 | 36130 ft | 459 kts | 270° |
| 2026-05-04 14:55 | 43.26991 | 20.29677 | 36133 ft | 458 kts | 270° |
| 2026-05-04 14:56 | 43.26524 | 20.20958 | 36128 ft | 458 kts | 269° |
| 2026-05-04 14:56 | 43.26050 | 20.12244 | 36129 ft | 458 kts | 269° |
| 2026-05-04 14:57 | 43.25572 | 20.03541 | 36123 ft | 457 kts | 269° |
| 2026-05-04 14:57 | 43.25095 | 19.94859 | 36125 ft | 456 kts | 269° |
| 2026-05-04 14:58 | 43.24602 | 19.86191 | 36123 ft | 456 kts | 269° |
| 2026-05-04 14:58 | 43.24101 | 19.77523 | 36120 ft | 455 kts | 269° |
| 2026-05-04 14:59 | 43.23601 | 19.68872 | 36118 ft | 455 kts | 269° |
| 2026-05-04 15:00 | 43.22837 | 19.55910 | 36117 ft | 454 kts | 269° |
| 2026-05-04 15:00 | 43.22314 | 19.47280 | 36116 ft | 454 kts | 269° |
| 2026-05-04 15:01 | 43.21534 | 19.34342 | 36113 ft | 454 kts | 269° |
| 2026-05-04 15:01 | 43.21005 | 19.25786 | 36116 ft | 453 kts | 268° |
| 2026-05-04 15:02 | 43.20463 | 19.17176 | 36116 ft | 453 kts | 268° |
| 2026-05-04 15:02 | 43.19920 | 19.08574 | 36112 ft | 452 kts | 268° |
| 2026-05-04 15:03 | 43.19375 | 18.99990 | 36112 ft | 452 kts | 268° |
| 2026-05-04 15:03 | 43.18822 | 18.91415 | 36109 ft | 451 kts | 268° |
| 2026-05-04 15:04 | 43.18259 | 18.82853 | 36111 ft | 451 kts | 268° |
| 2026-05-04 15:04 | 43.17686 | 18.74299 | 36118 ft | 451 kts | 268° |
| 2026-05-04 15:05 | 43.17104 | 18.65764 | 36119 ft | 449 kts | 268° |
| 2026-05-04 15:05 | 43.16526 | 18.57250 | 36122 ft | 449 kts | 268° |
| 2026-05-04 15:06 | 43.15949 | 18.48805 | 36131 ft | 448 kts | 268° |
| 2026-05-04 15:07 | 43.15062 | 18.36074 | 36140 ft | 447 kts | 268° |
| 2026-05-04 15:07 | 43.14463 | 18.27604 | 36145 ft | 446 kts | 268° |
| 2026-05-04 15:08 | 43.13865 | 18.19154 | 36141 ft | 445 kts | 268° |
| 2026-05-04 15:08 | 43.13258 | 18.10722 | 36141 ft | 445 kts | 268° |
| 2026-05-04 15:09 | 43.12643 | 18.02305 | 36136 ft | 444 kts | 268° |
| 2026-05-04 15:09 | 43.12024 | 17.93906 | 36133 ft | 443 kts | 268° |
| 2026-05-04 15:10 | 43.11092 | 17.81377 | 36134 ft | 443 kts | 268° |
| 2026-05-04 15:11 | 43.10140 | 17.68807 | 36132 ft | 443 kts | 268° |
| 2026-05-04 15:11 | 43.09504 | 17.60430 | 36131 ft | 442 kts | 267° |
| 2026-05-04 15:12 | 43.08858 | 17.52059 | 36136 ft | 442 kts | 267° |
| 2026-05-04 15:12 | 43.08206 | 17.43690 | 36130 ft | 442 kts | 267° |
| 2026-05-04 15:13 | 43.07545 | 17.35324 | 36131 ft | 442 kts | 267° |
| 2026-05-04 15:13 | 43.06881 | 17.26958 | 36128 ft | 442 kts | 267° |
| 2026-05-04 15:14 | 43.06220 | 17.18659 | 36130 ft | 442 kts | 267° |
| 2026-05-04 15:14 | 43.05542 | 17.10315 | 36130 ft | 441 kts | 266° |
| 2026-05-04 15:15 | 43.04864 | 17.01984 | 36137 ft | 441 kts | 266° |
| 2026-05-04 15:15 | 43.04178 | 16.93668 | 36137 ft | 440 kts | 266° |
| 2026-05-04 15:16 | 43.03134 | 16.81218 | 36141 ft | 439 kts | 266° |
| 2026-05-04 15:17 | 43.02201 | 16.70174 | 36127 ft | 439 kts | 266° |
| 2026-05-04 15:17 | 43.01146 | 16.57752 | 36128 ft | 439 kts | 266° |
| 2026-05-04 15:18 | 43.00433 | 16.49474 | 36135 ft | 439 kts | 265° |
| 2026-05-04 15:19 | 42.99345 | 16.37071 | 36134 ft | 438 kts | 265° |
| 2026-05-04 15:19 | 42.98244 | 16.24682 | 36132 ft | 437 kts | 265° |
| 2026-05-04 15:20 | 42.97509 | 16.16441 | 36136 ft | 437 kts | 265° |
| 2026-05-04 15:20 | 42.96771 | 16.08221 | 36132 ft | 436 kts | 265° |
| 2026-05-04 15:21 | 42.96030 | 16.00058 | 36133 ft | 436 kts | 265° |
| 2026-05-04 15:22 | 42.94996 | 15.87759 | 36126 ft | 433 kts | 272° |
| 2026-05-04 15:22 | 42.95314 | 15.75475 | 36129 ft | 431 kts | 273° |
| 2026-05-04 15:23 | 42.95527 | 15.67286 | 36124 ft | 431 kts | 273° |
| 2026-05-04 15:23 | 42.95732 | 15.59103 | 36124 ft | 431 kts | 273° |
| 2026-05-04 15:24 | 42.96123 | 15.42804 | 36121 ft | 431 kts | 273° |
| 2026-05-04 15:25 | 42.96312 | 15.34617 | 36122 ft | 431 kts | 273° |
| 2026-05-04 15:26 | 42.96584 | 15.22338 | 36119 ft | 431 kts | 273° |
| 2026-05-04 15:26 | 42.96842 | 15.10063 | 36116 ft | 431 kts | 273° |
| 2026-05-04 15:27 | 42.97091 | 14.97794 | 36117 ft | 431 kts | 273° |
| 2026-05-04 15:28 | 42.97324 | 14.85519 | 36116 ft | 431 kts | 272° |
| 2026-05-04 15:29 | 42.97545 | 14.73316 | 36112 ft | 430 kts | 272° |
| 2026-05-04 15:30 | 42.98001 | 14.44793 | 36113 ft | 428 kts | 272° |
| 2026-05-04 15:31 | 42.98180 | 14.32618 | 36113 ft | 427 kts | 272° |
| 2026-05-04 15:32 | 42.98436 | 14.12400 | 36116 ft | 425 kts | 272° |
| 2026-05-04 15:34 | 42.98665 | 13.92287 | 36117 ft | 423 kts | 272° |
| 2026-05-04 15:34 | 42.98789 | 13.80260 | 36119 ft | 422 kts | 272° |
| 2026-05-04 15:35 | 42.98885 | 13.68262 | 36120 ft | 420 kts | 272° |
| 2026-05-04 15:36 | 42.98976 | 13.56303 | 36125 ft | 419 kts | 272° |
| 2026-05-04 15:36 | 42.99039 | 13.48404 | 36126 ft | 418 kts | 272° |
| 2026-05-04 15:37 | 42.99089 | 13.40461 | 36131 ft | 418 kts | 271° |
| 2026-05-04 15:37 | 42.99127 | 13.32520 | 36130 ft | 418 kts | 272° |
| 2026-05-04 15:38 | 42.99168 | 13.24599 | 36127 ft | 416 kts | 272° |
| 2026-05-04 15:38 | 42.99201 | 13.16692 | 36138 ft | 416 kts | 271° |
| 2026-05-04 15:39 | 42.99226 | 13.08791 | 36140 ft | 416 kts | 271° |
| 2026-05-04 15:40 | 42.99256 | 12.96953 | 36147 ft | 415 kts | 271° |
| 2026-05-04 15:40 | 42.99265 | 12.89077 | 36145 ft | 414 kts | 271° |
| 2026-05-04 15:41 | 42.99264 | 12.81212 | 36144 ft | 414 kts | 271° |
| 2026-05-04 15:41 | 42.99268 | 12.73364 | 36141 ft | 413 kts | 271° |
| 2026-05-04 15:42 | 42.99266 | 12.65534 | 36139 ft | 412 kts | 271° |
| 2026-05-04 15:42 | 42.99264 | 12.57720 | 36139 ft | 411 kts | 271° |
| 2026-05-04 15:43 | 42.99254 | 12.49914 | 36139 ft | 410 kts | 271° |
| 2026-05-04 15:43 | 42.99236 | 12.42182 | 36142 ft | 410 kts | 271° |
| 2026-05-04 15:44 | 42.99211 | 12.34413 | 36147 ft | 409 kts | 271° |
| 2026-05-04 15:44 | 42.99180 | 12.26654 | 36153 ft | 408 kts | 271° |
| 2026-05-04 15:45 | 42.99143 | 12.18913 | 36156 ft | 407 kts | 271° |
| 2026-05-04 15:45 | 42.99102 | 12.11190 | 36163 ft | 406 kts | 271° |
| 2026-05-04 15:46 | 42.99060 | 12.03478 | 36165 ft | 406 kts | 271° |
| 2026-05-04 15:46 | 42.99013 | 11.95776 | 36166 ft | 405 kts | 271° |
| 2026-05-04 15:47 | 42.98954 | 11.88092 | 36159 ft | 404 kts | 270° |
| 2026-05-04 15:47 | 42.98891 | 11.80426 | 36161 ft | 403 kts | 271° |
| 2026-05-04 15:48 | 42.98828 | 11.72763 | 36155 ft | 403 kts | 270° |
| 2026-05-04 15:48 | 42.98726 | 11.61345 | 36155 ft | 402 kts | 270° |
| 2026-05-04 15:49 | 42.98647 | 11.53710 | 36153 ft | 402 kts | 270° |
| 2026-05-04 15:49 | 42.98567 | 11.46084 | 36154 ft | 401 kts | 270° |
| 2026-05-04 15:50 | 42.98481 | 11.38466 | 36155 ft | 401 kts | 270° |
| 2026-05-04 15:50 | 42.98388 | 11.30858 | 36159 ft | 400 kts | 270° |
| 2026-05-04 15:51 | 42.98294 | 11.23257 | 36160 ft | 400 kts | 270° |
| 2026-05-04 15:51 | 42.98187 | 11.15661 | 36158 ft | 400 kts | 269° |
| 2026-05-04 15:52 | 42.98077 | 11.08072 | 36161 ft | 399 kts | 269° |
| 2026-05-04 15:52 | 42.97968 | 11.00496 | 36161 ft | 399 kts | 269° |
| 2026-05-04 15:53 | 42.97851 | 10.92927 | 36155 ft | 398 kts | 269° |
| 2026-05-04 15:53 | 42.97729 | 10.85365 | 36154 ft | 398 kts | 269° |
| 2026-05-04 15:54 | 42.97600 | 10.77858 | 36148 ft | 398 kts | 269° |
| 2026-05-04 15:54 | 42.97472 | 10.70307 | 36147 ft | 397 kts | 269° |
| 2026-05-04 15:55 | 42.97345 | 10.62893 | 36142 ft | 397 kts | 269° |
| 2026-05-04 15:55 | 42.97200 | 10.55348 | 36138 ft | 397 kts | 269° |
| 2026-05-04 15:56 | 42.97052 | 10.47805 | 36134 ft | 398 kts | 268° |
| 2026-05-04 15:56 | 42.96897 | 10.40254 | 36132 ft | 398 kts | 268° |
| 2026-05-04 15:57 | 42.96736 | 10.32713 | 36126 ft | 397 kts | 268° |
| 2026-05-04 15:57 | 42.96583 | 10.25238 | 35971 ft | 394 kts | 268° |
| 2026-05-04 15:58 | 42.96506 | 10.21511 | 35712 ft | 391 kts | 268° |
| 2026-05-04 15:58 | 42.96425 | 10.17804 | 35461 ft | 390 kts | 268° |
| 2026-05-04 15:58 | 42.96343 | 10.14112 | 35214 ft | 389 kts | 268° |
| 2026-05-04 15:58 | 42.96261 | 10.10421 | 34966 ft | 389 kts | 268° |
| 2026-05-04 15:59 | 42.96175 | 10.06725 | 34723 ft | 389 kts | 267° |
| 2026-05-04 15:59 | 42.96087 | 10.03038 | 34487 ft | 389 kts | 267° |
| 2026-05-04 15:59 | 42.95997 | 9.99349 | 34241 ft | 388 kts | 267° |
| 2026-05-04 15:59 | 42.95905 | 9.95668 | 33994 ft | 388 kts | 267° |
| 2026-05-04 16:00 | 42.95814 | 9.91982 | 33572 ft | 389 kts | 267° |
| 2026-05-04 16:00 | 42.95723 | 9.88280 | 32813 ft | 391 kts | 267° |
| 2026-05-04 16:00 | 42.95630 | 9.84561 | 32065 ft | 393 kts | 267° |
| 2026-05-04 16:00 | 42.95535 | 9.80824 | 31310 ft | 395 kts | 268° |
| 2026-05-04 16:01 | 42.95650 | 9.77064 | 30531 ft | 400 kts | 276° |
| 2026-05-04 16:01 | 42.96227 | 9.73313 | 30187 ft | 409 kts | 284° |
| 2026-05-04 16:01 | 42.97243 | 9.69640 | 30023 ft | 418 kts | 291° |
| 2026-05-04 16:01 | 42.98483 | 9.66035 | 30061 ft | 421 kts | 291° |
| 2026-05-04 16:02 | 43.00952 | 9.58764 | 29024 ft | 426 kts | 291° |
| 2026-05-04 16:02 | 43.03482 | 9.51258 | 27038 ft | 437 kts | 292° |
| 2026-05-04 16:03 | 43.04767 | 9.47462 | 26787 ft | 442 kts | 292° |
| 2026-05-04 16:03 | 43.06065 | 9.43634 | 26512 ft | 444 kts | 292° |
| 2026-05-04 16:03 | 43.07350 | 9.39840 | 26084 ft | 447 kts | 292° |
| 2026-05-04 16:03 | 43.08660 | 9.35968 | 25646 ft | 450 kts | 292° |
| 2026-05-04 16:04 | 43.09979 | 9.32068 | 25210 ft | 453 kts | 292° |
| 2026-05-04 16:04 | 43.12641 | 9.24191 | 24327 ft | 459 kts | 293° |
| 2026-05-04 16:04 | 43.13984 | 9.20202 | 23875 ft | 463 kts | 293° |
| 2026-05-04 16:05 | 43.15334 | 9.16185 | 23393 ft | 466 kts | 293° |
| 2026-05-04 16:05 | 43.16688 | 9.12151 | 22936 ft | 468 kts | 293° |
| 2026-05-04 16:05 | 43.19375 | 9.04126 | 21491 ft | 458 kts | 292° |
| 2026-05-04 16:06 | 43.20659 | 9.00279 | 21199 ft | 425 kts | 292° |
| 2026-05-04 16:06 | 43.23762 | 8.90979 | 20557 ft | 395 kts | 292° |
| 2026-05-04 16:07 | 43.24898 | 8.87560 | 20190 ft | 392 kts | 292° |
| 2026-05-04 16:07 | 43.28252 | 8.77430 | 19056 ft | 386 kts | 291° |
| 2026-05-04 16:08 | 43.29366 | 8.74065 | 18698 ft | 385 kts | 291° |
| 2026-05-04 16:08 | 43.32536 | 8.64438 | 17741 ft | 359 kts | 291° |
| 2026-05-04 16:09 | 43.33818 | 8.57941 | 16909 ft | 350 kts | 272° |
| 2026-05-04 16:09 | 43.33559 | 8.51310 | 16469 ft | 350 kts | 262° |
| 2026-05-04 16:10 | 43.33006 | 8.44699 | 15994 ft | 350 kts | 262° |
| 2026-05-04 16:11 | 43.32181 | 8.34782 | 15290 ft | 347 kts | 262° |
| 2026-05-04 16:11 | 43.31904 | 8.31500 | 15049 ft | 346 kts | 262° |
| 2026-05-04 16:12 | 43.31074 | 8.21711 | 14346 ft | 343 kts | 262° |
| 2026-05-04 16:12 | 43.30529 | 8.11969 | 13637 ft | 342 kts | 274° |
| 2026-05-04 16:13 | 43.31966 | 8.05735 | 13168 ft | 347 kts | 297° |
| 2026-05-04 16:13 | 43.34368 | 7.99989 | 12691 ft | 346 kts | 297° |
| 2026-05-04 16:14 | 43.36721 | 7.94277 | 12224 ft | 345 kts | 297° |
| 2026-05-04 16:14 | 43.39077 | 7.88541 | 11765 ft | 344 kts | 297° |
| 2026-05-04 16:15 | 43.42593 | 7.79957 | 11252 ft | 343 kts | 297° |
| 2026-05-04 16:16 | 43.44940 | 7.74243 | 10944 ft | 343 kts | 297° |
| 2026-05-04 16:16 | 43.46845 | 7.65274 | 10482 ft | 312 kts | 255° |
| 2026-05-04 16:17 | 43.44634 | 7.60694 | 10209 ft | 280 kts | 216° |
| 2026-05-04 16:18 | 43.40341 | 7.55322 | 9656 ft | 279 kts | 226° |
| 2026-05-04 16:18 | 43.39070 | 7.53306 | 9487 ft | 279 kts | 229° |
| 2026-05-04 16:19 | 43.35740 | 7.46722 | 8934 ft | 280 kts | 238° |
| 2026-05-04 16:19 | 43.33988 | 7.41969 | 8576 ft | 281 kts | 244° |
| 2026-05-04 16:20 | 43.32089 | 7.34427 | 8097 ft | 270 kts | 253° |
| 2026-05-04 16:20 | 43.31376 | 7.29531 | 7842 ft | 252 kts | 259° |
| 2026-05-04 16:21 | 43.31001 | 7.22412 | 7228 ft | 250 kts | 267° |
| 2026-05-04 16:22 | 43.31179 | 7.17648 | 6903 ft | 250 kts | 273° |
| 2026-05-04 16:22 | 43.32079 | 7.10585 | 6416 ft | 251 kts | 282° |
| 2026-05-04 16:23 | 43.33741 | 7.03769 | 5925 ft | 252 kts | 292° |
| 2026-05-04 16:24 | 43.36850 | 6.95773 | 5485 ft | 230 kts | 303° |
| 2026-05-04 16:25 | 43.38733 | 6.92236 | 5245 ft | 229 kts | 310° |
| 2026-05-04 16:26 | 43.43997 | 6.91428 | 4803 ft | 217 kts | 47° |
| 2026-05-04 16:26 | 43.47208 | 6.95817 | 4422 ft | 217 kts | 47° |
| 2026-05-04 16:27 | 43.49349 | 6.98734 | 4165 ft | 216 kts | 48° |
| 2026-05-04 16:28 | 43.52538 | 7.03084 | 3503 ft | 211 kts | 47° |
| 2026-05-04 16:28 | 43.55538 | 7.07183 | 2695 ft | 195 kts | 47° |
| 2026-05-04 16:29 | 43.59120 | 7.12084 | 1723 ft | 158 kts | 47° |
| 2026-05-04 16:30 | 43.61322 | 7.15103 | 1120 ft | 145 kts | 49° |
| 2026-05-04 16:31 | 43.62736 | 7.17044 | 746 ft | 142 kts | 50° |
| 2026-05-04 16:31 | 43.64778 | 7.19848 | 203 ft | 134 kts | 52° |
| 2026-05-04 16:32 | 43.66162 | 7.21740 | 22 ft | 13 kts | 24° |
| 2026-05-04 16:33 | 43.66295 | 7.21647 | 17 ft | 11 kts | 314° |
| 2026-05-04 16:33 | 43.66381 | 7.21517 | 19 ft | 9 kts | 309° |
| 2026-05-04 16:34 | 43.66437 | 7.21445 | 20 ft | 0 kts | 319° |